TVS478F EIDW-LKPR
Flight info
| Callsign | TVS478F |
|---|---|
| Flight time | 2h 9m |
| Altitude | 41000 |
| Route | ENDEQ3J ENDEQ Q36 ALAVA Z195 MALUD UL975 WAL M16 DOLAS DCT NAVPI DCT EKSAK DCT SWALM DCT GASKA DCT TONSU Z35 ODOMO DCT LOMKI |
| Aircraft | B738/M-SDFGHIJ1LORVWXYZ/LB1 |
Departure
| Time | 2026-05-01 12:12 |
|---|---|
| Airport | Dublin Airport (EIDW) |
Arrival
| Time | 2026-05-01 14:22 |
|---|---|
| Airport | Václav Havel Airport Prague (LKPR) |
| Time | Latitude | Longitude | Altitude | Speed | Heading |
|---|---|---|---|---|---|
| 2026-05-01 11:45 | 53.42886 | -6.24761 | 210 ft | 0 kts | 185° |
| 2026-05-01 12:00 | 53.42892 | -6.24760 | 210 ft | 3 kts | 185° |
| 2026-05-01 12:00 | 53.42915 | -6.24756 | 210 ft | 3 kts | 192° |
| 2026-05-01 12:00 | 53.42938 | -6.24737 | 217 ft | 3 kts | 275° |
| 2026-05-01 12:01 | 53.42939 | -6.24750 | 214 ft | 0 kts | 275° |
| 2026-05-01 12:03 | 53.42939 | -6.24761 | 218 ft | 2 kts | 275° |
| 2026-05-01 12:03 | 53.42941 | -6.24789 | 212 ft | 3 kts | 275° |
| 2026-05-01 12:03 | 53.42943 | -6.24829 | 210 ft | 4 kts | 275° |
| 2026-05-01 12:03 | 53.42946 | -6.24881 | 210 ft | 5 kts | 275° |
| 2026-05-01 12:04 | 53.42949 | -6.24943 | 213 ft | 6 kts | 275° |
| 2026-05-01 12:04 | 53.42954 | -6.25016 | 211 ft | 7 kts | 276° |
| 2026-05-01 12:04 | 53.42958 | -6.25099 | 210 ft | 8 kts | 275° |
| 2026-05-01 12:04 | 53.42963 | -6.25191 | 210 ft | 8 kts | 274° |
| 2026-05-01 12:05 | 53.42949 | -6.25285 | 213 ft | 5 kts | 247° |
| 2026-05-01 12:05 | 53.42944 | -6.25303 | 212 ft | 2 kts | 247° |
| 2026-05-01 12:05 | 53.42938 | -6.25326 | 214 ft | 3 kts | 243° |
| 2026-05-01 12:06 | 53.42927 | -6.25357 | 210 ft | 4 kts | 230° |
| 2026-05-01 12:06 | 53.42905 | -6.25389 | 215 ft | 5 kts | 220° |
| 2026-05-01 12:06 | 53.42866 | -6.25448 | 213 ft | 10 kts | 226° |
| 2026-05-01 12:06 | 53.42812 | -6.25542 | 212 ft | 13 kts | 226° |
| 2026-05-01 12:07 | 53.42736 | -6.25672 | 217 ft | 18 kts | 225° |
| 2026-05-01 12:07 | 53.42645 | -6.25740 | 210 ft | 13 kts | 164° |
| 2026-05-01 12:07 | 53.42562 | -6.25700 | 210 ft | 13 kts | 197° |
| 2026-05-01 12:07 | 53.42487 | -6.25779 | 216 ft | 13 kts | 223° |
| 2026-05-01 12:08 | 53.42413 | -6.25901 | 210 ft | 16 kts | 226° |
| 2026-05-01 12:08 | 53.42329 | -6.26048 | 212 ft | 19 kts | 226° |
| 2026-05-01 12:08 | 53.42269 | -6.26236 | 213 ft | 18 kts | 262° |
| 2026-05-01 12:08 | 53.42276 | -6.26446 | 212 ft | 18 kts | 274° |
| 2026-05-01 12:09 | 53.42286 | -6.26648 | 210 ft | 17 kts | 275° |
| 2026-05-01 12:09 | 53.42297 | -6.26843 | 210 ft | 16 kts | 275° |
| 2026-05-01 12:09 | 53.42307 | -6.27037 | 215 ft | 18 kts | 275° |
| 2026-05-01 12:09 | 53.42319 | -6.27258 | 210 ft | 20 kts | 275° |
| 2026-05-01 12:10 | 53.42332 | -6.27504 | 210 ft | 22 kts | 275° |
| 2026-05-01 12:10 | 53.42361 | -6.28033 | 214 ft | 22 kts | 275° |
| 2026-05-01 12:10 | 53.42374 | -6.28239 | 213 ft | 12 kts | 276° |
| 2026-05-01 12:11 | 53.42284 | -6.28303 | 219 ft | 9 kts | 142° |
| 2026-05-01 12:11 | 53.42239 | -6.28237 | 212 ft | 8 kts | 137° |
| 2026-05-01 12:11 | 53.42200 | -6.28146 | 215 ft | 13 kts | 107° |
| 2026-05-01 12:12 | 53.42172 | -6.27703 | 212 ft | 79 kts | 95° |
| 2026-05-01 12:12 | 53.42099 | -6.26357 | 248 ft | 146 kts | 95° |
| 2026-05-01 12:12 | 53.42001 | -6.24639 | 992 ft | 147 kts | 96° |
| 2026-05-01 12:12 | 53.41898 | -6.22911 | 1780 ft | 154 kts | 96° |
| 2026-05-01 12:13 | 53.41801 | -6.21109 | 2657 ft | 155 kts | 96° |
| 2026-05-01 12:13 | 53.41702 | -6.19307 | 3513 ft | 159 kts | 97° |
| 2026-05-01 12:13 | 53.41585 | -6.17285 | 4080 ft | 183 kts | 97° |
| 2026-05-01 12:13 | 53.41472 | -6.15052 | 4673 ft | 204 kts | 98° |
| 2026-05-01 12:14 | 53.41322 | -6.12534 | 4945 ft | 232 kts | 97° |
| 2026-05-01 12:14 | 53.41161 | -6.09654 | 5244 ft | 262 kts | 97° |
| 2026-05-01 12:14 | 53.40992 | -6.06559 | 6069 ft | 270 kts | 97° |
| 2026-05-01 12:14 | 53.40889 | -6.03406 | 7051 ft | 274 kts | 90° |
| 2026-05-01 12:15 | 53.41073 | -6.00252 | 8009 ft | 279 kts | 85° |
| 2026-05-01 12:15 | 53.41338 | -5.96998 | 8962 ft | 285 kts | 84° |
| 2026-05-01 12:15 | 53.41607 | -5.93685 | 9937 ft | 289 kts | 85° |
| 2026-05-01 12:15 | 53.41861 | -5.90310 | 10908 ft | 294 kts | 86° |
| 2026-05-01 12:16 | 53.42086 | -5.86894 | 11902 ft | 299 kts | 89° |
| 2026-05-01 12:16 | 53.42178 | -5.83263 | 12367 ft | 322 kts | 91° |
| 2026-05-01 12:16 | 53.42200 | -5.79439 | 13127 ft | 334 kts | 92° |
| 2026-05-01 12:16 | 53.42212 | -5.75499 | 14042 ft | 339 kts | 92° |
| 2026-05-01 12:17 | 53.42229 | -5.71553 | 15131 ft | 340 kts | 92° |
| 2026-05-01 12:17 | 53.42253 | -5.67558 | 16125 ft | 345 kts | 92° |
| 2026-05-01 12:17 | 53.42282 | -5.63512 | 17047 ft | 350 kts | 91° |
| 2026-05-01 12:17 | 53.42316 | -5.59398 | 17957 ft | 355 kts | 91° |
| 2026-05-01 12:18 | 53.42352 | -5.55225 | 18849 ft | 360 kts | 91° |
| 2026-05-01 12:18 | 53.42389 | -5.50998 | 19704 ft | 365 kts | 91° |
| 2026-05-01 12:18 | 53.42426 | -5.46720 | 20538 ft | 370 kts | 91° |
| 2026-05-01 12:18 | 53.42463 | -5.42382 | 21356 ft | 374 kts | 91° |
| 2026-05-01 12:19 | 53.42498 | -5.38002 | 22133 ft | 378 kts | 92° |
| 2026-05-01 12:19 | 53.42533 | -5.33563 | 22875 ft | 383 kts | 92° |
| 2026-05-01 12:19 | 53.42566 | -5.29079 | 23593 ft | 387 kts | 92° |
| 2026-05-01 12:19 | 53.42598 | -5.24536 | 24294 ft | 391 kts | 92° |
| 2026-05-01 12:20 | 53.42624 | -5.20563 | 24866 ft | 395 kts | 92° |
| 2026-05-01 12:20 | 53.42652 | -5.15989 | 25520 ft | 399 kts | 92° |
| 2026-05-01 12:20 | 53.42680 | -5.11315 | 26147 ft | 402 kts | 92° |
| 2026-05-01 12:20 | 53.42707 | -5.06604 | 26755 ft | 406 kts | 92° |
| 2026-05-01 12:21 | 53.42731 | -5.01855 | 27339 ft | 409 kts | 92° |
| 2026-05-01 12:21 | 53.42755 | -4.97064 | 27921 ft | 413 kts | 92° |
| 2026-05-01 12:21 | 53.42777 | -4.92233 | 28468 ft | 416 kts | 92° |
| 2026-05-01 12:21 | 53.42795 | -4.87557 | 28975 ft | 419 kts | 92° |
| 2026-05-01 12:22 | 53.42749 | -4.82505 | 29507 ft | 420 kts | 94° |
| 2026-05-01 12:22 | 53.42600 | -4.77622 | 30087 ft | 421 kts | 95° |
| 2026-05-01 12:22 | 53.42411 | -4.72699 | 30461 ft | 426 kts | 96° |
| 2026-05-01 12:22 | 53.42211 | -4.67755 | 30823 ft | 431 kts | 96° |
| 2026-05-01 12:23 | 53.42012 | -4.62703 | 31245 ft | 434 kts | 96° |
| 2026-05-01 12:23 | 53.41819 | -4.57644 | 31671 ft | 436 kts | 95° |
| 2026-05-01 12:23 | 53.41630 | -4.52549 | 32070 ft | 439 kts | 95° |
| 2026-05-01 12:23 | 53.41442 | -4.47427 | 32457 ft | 442 kts | 95° |
| 2026-05-01 12:24 | 53.41252 | -4.42275 | 32833 ft | 444 kts | 95° |
| 2026-05-01 12:24 | 53.41061 | -4.37109 | 33288 ft | 444 kts | 95° |
| 2026-05-01 12:24 | 53.40869 | -4.31961 | 33812 ft | 442 kts | 95° |
| 2026-05-01 12:24 | 53.40675 | -4.26830 | 34315 ft | 440 kts | 95° |
| 2026-05-01 12:25 | 53.40478 | -4.21716 | 34744 ft | 440 kts | 95° |
| 2026-05-01 12:25 | 53.40077 | -4.11468 | 35559 ft | 440 kts | 95° |
| 2026-05-01 12:25 | 53.39875 | -4.06352 | 36000 ft | 439 kts | 95° |
| 2026-05-01 12:26 | 53.39670 | -4.01250 | 36409 ft | 439 kts | 95° |
| 2026-05-01 12:26 | 53.39671 | -3.91013 | 37169 ft | 439 kts | 86° |
| 2026-05-01 12:26 | 53.39964 | -3.85955 | 37787 ft | 433 kts | 85° |
| 2026-05-01 12:27 | 53.40269 | -3.80961 | 38241 ft | 430 kts | 86° |
| 2026-05-01 12:27 | 53.40812 | -3.70977 | 38691 ft | 436 kts | 86° |
| 2026-05-01 12:28 | 53.41282 | -3.60867 | 39325 ft | 434 kts | 89° |
| 2026-05-01 12:28 | 53.41215 | -3.55811 | 39592 ft | 434 kts | 95° |
| 2026-05-01 12:28 | 53.40717 | -3.45714 | 40053 ft | 436 kts | 96° |
| 2026-05-01 12:29 | 53.40455 | -3.40652 | 40323 ft | 437 kts | 96° |
| 2026-05-01 12:29 | 53.40209 | -3.35577 | 40589 ft | 437 kts | 96° |
| 2026-05-01 12:29 | 53.39745 | -3.25407 | 41042 ft | 439 kts | 96° |
| 2026-05-01 12:30 | 53.39281 | -3.15141 | 41155 ft | 445 kts | 96° |
| 2026-05-01 12:30 | 53.39052 | -3.09970 | 41156 ft | 445 kts | 95° |
| 2026-05-01 12:31 | 53.38667 | -2.99679 | 41143 ft | 438 kts | 95° |
| 2026-05-01 12:31 | 53.38297 | -2.89526 | 41160 ft | 436 kts | 95° |
| 2026-05-01 12:32 | 53.37908 | -2.79380 | 41157 ft | 436 kts | 95° |
| 2026-05-01 12:32 | 53.37301 | -2.64170 | 41158 ft | 437 kts | 95° |
| 2026-05-01 12:33 | 53.36884 | -2.54024 | 41157 ft | 437 kts | 95° |
| 2026-05-01 12:33 | 53.36459 | -2.43860 | 41159 ft | 438 kts | 95° |
| 2026-05-01 12:34 | 53.36026 | -2.33693 | 41157 ft | 439 kts | 95° |
| 2026-05-01 12:34 | 53.35519 | -2.23511 | 41155 ft | 439 kts | 99° |
| 2026-05-01 12:35 | 53.34506 | -2.13454 | 41161 ft | 439 kts | 102° |
| 2026-05-01 12:35 | 53.33381 | -2.03411 | 41156 ft | 439 kts | 102° |
| 2026-05-01 12:36 | 53.32302 | -1.93346 | 41161 ft | 440 kts | 101° |
| 2026-05-01 12:36 | 53.31242 | -1.83269 | 41166 ft | 440 kts | 101° |
| 2026-05-01 12:37 | 53.30178 | -1.73193 | 41165 ft | 440 kts | 101° |
| 2026-05-01 12:37 | 53.29102 | -1.63111 | 41173 ft | 440 kts | 101° |
| 2026-05-01 12:38 | 53.28019 | -1.53062 | 41178 ft | 440 kts | 101° |
| 2026-05-01 12:38 | 53.26930 | -1.43016 | 41185 ft | 439 kts | 101° |
| 2026-05-01 12:39 | 53.25835 | -1.32985 | 41184 ft | 439 kts | 102° |
| 2026-05-01 12:39 | 53.24732 | -1.22961 | 41185 ft | 439 kts | 102° |
| 2026-05-01 12:40 | 53.23621 | -1.12949 | 41184 ft | 438 kts | 102° |
| 2026-05-01 12:40 | 53.22503 | -1.02950 | 41176 ft | 438 kts | 102° |
| 2026-05-01 12:41 | 53.21378 | -0.92953 | 41175 ft | 438 kts | 102° |
| 2026-05-01 12:41 | 53.20244 | -0.82976 | 41183 ft | 438 kts | 102° |
| 2026-05-01 12:42 | 53.19103 | -0.73009 | 41185 ft | 437 kts | 102° |
| 2026-05-01 12:42 | 53.17957 | -0.63063 | 41184 ft | 437 kts | 102° |
| 2026-05-01 12:43 | 53.16802 | -0.53113 | 41177 ft | 437 kts | 102° |
| 2026-05-01 12:43 | 53.15647 | -0.43226 | 41160 ft | 437 kts | 102° |
| 2026-05-01 12:44 | 53.14469 | -0.33226 | 41156 ft | 437 kts | 102° |
| 2026-05-01 12:45 | 53.12110 | -0.13428 | 41157 ft | 437 kts | 102° |
| 2026-05-01 12:45 | 53.10914 | -0.03502 | 41157 ft | 437 kts | 102° |
| 2026-05-01 12:46 | 53.09711 | 0.06409 | 41165 ft | 437 kts | 102° |
| 2026-05-01 12:46 | 53.08500 | 0.16312 | 41155 ft | 437 kts | 102° |
| 2026-05-01 12:47 | 53.07282 | 0.26202 | 41157 ft | 436 kts | 103° |
| 2026-05-01 12:47 | 53.06057 | 0.36075 | 41161 ft | 436 kts | 103° |
| 2026-05-01 12:48 | 53.05025 | 0.44332 | 41166 ft | 435 kts | 103° |
| 2026-05-01 12:48 | 53.03789 | 0.54166 | 41165 ft | 435 kts | 103° |
| 2026-05-01 12:49 | 53.02549 | 0.63958 | 41171 ft | 434 kts | 103° |
| 2026-05-01 12:49 | 53.01303 | 0.73734 | 41182 ft | 434 kts | 103° |
| 2026-05-01 12:50 | 53.00046 | 0.83527 | 41188 ft | 434 kts | 103° |
| 2026-05-01 12:50 | 52.98782 | 0.93321 | 41195 ft | 434 kts | 103° |
| 2026-05-01 12:51 | 52.97361 | 1.03029 | 41189 ft | 433 kts | 110° |
| 2026-05-01 12:52 | 52.94162 | 1.17027 | 41207 ft | 433 kts | 112° |
| 2026-05-01 12:52 | 52.90902 | 1.31000 | 41202 ft | 434 kts | 111° |
| 2026-05-01 12:53 | 52.87688 | 1.45003 | 41215 ft | 434 kts | 111° |
| 2026-05-01 12:54 | 52.85540 | 1.54344 | 41212 ft | 434 kts | 111° |
| 2026-05-01 12:54 | 52.82303 | 1.68340 | 41211 ft | 434 kts | 111° |
| 2026-05-01 12:55 | 52.79051 | 1.82305 | 41212 ft | 434 kts | 112° |
| 2026-05-01 12:56 | 52.76876 | 1.91592 | 41212 ft | 434 kts | 112° |
| 2026-05-01 12:56 | 52.74692 | 2.00876 | 41211 ft | 433 kts | 112° |
| 2026-05-01 12:57 | 52.72506 | 2.10132 | 41212 ft | 433 kts | 112° |
| 2026-05-01 12:57 | 52.69212 | 2.24003 | 41221 ft | 433 kts | 112° |
| 2026-05-01 12:58 | 52.67011 | 2.33221 | 41221 ft | 433 kts | 112° |
| 2026-05-01 12:59 | 52.63694 | 2.47042 | 41224 ft | 433 kts | 112° |
| 2026-05-01 12:59 | 52.60361 | 2.60846 | 41223 ft | 433 kts | 112° |
| 2026-05-01 13:00 | 52.57011 | 2.74634 | 41227 ft | 433 kts | 112° |
| 2026-05-01 13:01 | 52.53665 | 2.88403 | 41228 ft | 433 kts | 111° |
| 2026-05-01 13:02 | 52.50425 | 3.02254 | 41232 ft | 433 kts | 111° |
| 2026-05-01 13:07 | 52.26097 | 4.03403 | 41241 ft | 435 kts | 112° |
| 2026-05-01 13:08 | 52.23838 | 4.12556 | 41245 ft | 435 kts | 112° |
| 2026-05-01 13:08 | 52.21573 | 4.21698 | 41250 ft | 435 kts | 112° |
| 2026-05-01 13:09 | 52.19302 | 4.30822 | 41248 ft | 435 kts | 112° |
| 2026-05-01 13:09 | 52.17022 | 4.39946 | 41251 ft | 435 kts | 112° |
| 2026-05-01 13:10 | 52.14737 | 4.49054 | 41247 ft | 435 kts | 112° |
| 2026-05-01 13:10 | 52.12446 | 4.58146 | 41248 ft | 435 kts | 112° |
| 2026-05-01 13:11 | 52.10146 | 4.67240 | 41247 ft | 435 kts | 112° |
| 2026-05-01 13:11 | 52.07854 | 4.76261 | 41248 ft | 434 kts | 112° |
| 2026-05-01 13:12 | 52.05526 | 4.85388 | 41253 ft | 434 kts | 112° |
| 2026-05-01 13:12 | 52.03225 | 4.94376 | 41257 ft | 434 kts | 112° |
| 2026-05-01 13:13 | 52.00900 | 5.03419 | 41265 ft | 434 kts | 113° |
| 2026-05-01 13:13 | 51.98572 | 5.12439 | 41268 ft | 433 kts | 113° |
| 2026-05-01 13:14 | 51.96235 | 5.21454 | 41268 ft | 433 kts | 113° |
| 2026-05-01 13:14 | 51.93895 | 5.30450 | 41267 ft | 433 kts | 113° |
| 2026-05-01 13:15 | 51.91545 | 5.39444 | 41260 ft | 433 kts | 113° |
| 2026-05-01 13:15 | 51.89190 | 5.48423 | 41261 ft | 433 kts | 113° |
| 2026-05-01 13:16 | 51.86830 | 5.57389 | 41268 ft | 433 kts | 113° |
| 2026-05-01 13:16 | 51.84464 | 5.66338 | 41267 ft | 433 kts | 113° |
| 2026-05-01 13:17 | 51.79710 | 5.84217 | 41267 ft | 433 kts | 113° |
| 2026-05-01 13:18 | 51.76132 | 5.97584 | 41277 ft | 432 kts | 113° |
| 2026-05-01 13:18 | 51.73736 | 6.06490 | 41277 ft | 432 kts | 113° |
| 2026-05-01 13:19 | 51.71338 | 6.15371 | 41287 ft | 432 kts | 114° |
| 2026-05-01 13:20 | 51.67723 | 6.28691 | 41292 ft | 432 kts | 114° |
| 2026-05-01 13:20 | 51.65302 | 6.37573 | 41299 ft | 433 kts | 114° |
| 2026-05-01 13:21 | 51.61658 | 6.50871 | 41298 ft | 433 kts | 114° |
| 2026-05-01 13:21 | 51.59220 | 6.59730 | 41300 ft | 433 kts | 114° |
| 2026-05-01 13:22 | 51.56774 | 6.68583 | 41296 ft | 434 kts | 114° |
| 2026-05-01 13:22 | 51.54317 | 6.77438 | 41300 ft | 434 kts | 114° |
| 2026-05-01 13:23 | 51.51854 | 6.86288 | 41293 ft | 434 kts | 114° |
| 2026-05-01 13:23 | 51.49384 | 6.95123 | 41292 ft | 434 kts | 114° |
| 2026-05-01 13:24 | 51.46908 | 7.03950 | 41290 ft | 434 kts | 114° |
| 2026-05-01 13:25 | 51.43175 | 7.17195 | 41290 ft | 434 kts | 114° |
| 2026-05-01 13:25 | 51.40680 | 7.26007 | 41299 ft | 434 kts | 114° |
| 2026-05-01 13:26 | 51.38178 | 7.34809 | 41298 ft | 435 kts | 114° |
| 2026-05-01 13:26 | 51.35682 | 7.43557 | 41294 ft | 435 kts | 114° |
| 2026-05-01 13:27 | 51.33186 | 7.52273 | 41292 ft | 435 kts | 114° |
| 2026-05-01 13:27 | 51.29399 | 7.65440 | 41293 ft | 435 kts | 114° |
| 2026-05-01 13:28 | 51.25596 | 7.78585 | 41307 ft | 434 kts | 114° |
| 2026-05-01 13:29 | 51.20507 | 7.96065 | 41310 ft | 434 kts | 114° |
| 2026-05-01 13:31 | 51.12832 | 8.22193 | 41334 ft | 434 kts | 115° |
| 2026-05-01 13:32 | 51.06391 | 8.43903 | 41330 ft | 434 kts | 115° |
| 2026-05-01 13:33 | 50.99843 | 8.63732 | 41344 ft | 434 kts | 127° |
| 2026-05-01 13:34 | 50.92350 | 8.78784 | 41349 ft | 435 kts | 128° |
| 2026-05-01 13:35 | 50.86772 | 8.90109 | 41349 ft | 435 kts | 127° |
| 2026-05-01 13:36 | 50.81193 | 9.01439 | 41349 ft | 435 kts | 127° |
| 2026-05-01 13:36 | 50.75627 | 9.12692 | 41340 ft | 436 kts | 127° |
| 2026-05-01 13:37 | 50.71903 | 9.20240 | 41339 ft | 436 kts | 125° |
| 2026-05-01 13:37 | 50.68891 | 9.28518 | 41339 ft | 435 kts | 116° |
| 2026-05-01 13:38 | 50.64756 | 9.41242 | 41341 ft | 435 kts | 116° |
| 2026-05-01 13:39 | 50.61951 | 9.49684 | 41350 ft | 435 kts | 117° |
| 2026-05-01 13:39 | 50.59121 | 9.58085 | 41351 ft | 435 kts | 117° |
| 2026-05-01 13:40 | 50.56279 | 9.66473 | 41348 ft | 435 kts | 117° |
| 2026-05-01 13:40 | 50.53429 | 9.74861 | 41350 ft | 434 kts | 117° |
| 2026-05-01 13:41 | 50.50579 | 9.83224 | 41350 ft | 434 kts | 117° |
| 2026-05-01 13:41 | 50.47721 | 9.91584 | 41354 ft | 434 kts | 117° |
| 2026-05-01 13:42 | 50.44857 | 9.99934 | 41347 ft | 434 kts | 117° |
| 2026-05-01 13:42 | 50.41990 | 10.08267 | 41355 ft | 434 kts | 117° |
| 2026-05-01 13:43 | 50.39119 | 10.16586 | 41361 ft | 434 kts | 117° |
| 2026-05-01 13:43 | 50.36240 | 10.24903 | 41361 ft | 434 kts | 117° |
| 2026-05-01 13:44 | 50.33233 | 10.33109 | 41360 ft | 435 kts | 121° |
| 2026-05-01 13:44 | 50.30012 | 10.41111 | 41364 ft | 435 kts | 121° |
| 2026-05-01 13:45 | 50.26793 | 10.49058 | 41357 ft | 435 kts | 121° |
| 2026-05-01 13:45 | 50.23575 | 10.57062 | 41356 ft | 435 kts | 121° |
| 2026-05-01 13:46 | 50.20366 | 10.65059 | 41360 ft | 435 kts | 121° |
| 2026-05-01 13:46 | 50.17146 | 10.73066 | 41355 ft | 435 kts | 121° |
| 2026-05-01 13:47 | 50.13925 | 10.81047 | 41360 ft | 435 kts | 121° |
| 2026-05-01 13:47 | 50.10698 | 10.89020 | 41359 ft | 435 kts | 121° |
| 2026-05-01 13:48 | 50.07466 | 10.96979 | 41357 ft | 435 kts | 121° |
| 2026-05-01 13:48 | 50.04224 | 11.04942 | 41356 ft | 435 kts | 121° |
| 2026-05-01 13:49 | 50.00988 | 11.12870 | 41365 ft | 435 kts | 121° |
| 2026-05-01 13:49 | 49.97991 | 11.21004 | 41366 ft | 433 kts | 110° |
| 2026-05-01 13:50 | 49.96649 | 11.30031 | 41376 ft | 429 kts | 92° |
| 2026-05-01 13:50 | 49.96398 | 11.39276 | 41375 ft | 429 kts | 91° |
| 2026-05-01 13:51 | 49.96147 | 11.48525 | 41380 ft | 429 kts | 91° |
| 2026-05-01 13:51 | 49.95838 | 11.57796 | 41388 ft | 430 kts | 91° |
| 2026-05-01 13:52 | 49.95516 | 11.67069 | 41391 ft | 430 kts | 91° |
| 2026-05-01 13:52 | 49.95198 | 11.76341 | 41392 ft | 431 kts | 91° |
| 2026-05-01 13:53 | 49.94875 | 11.85620 | 41396 ft | 431 kts | 92° |
| 2026-05-01 13:53 | 49.94434 | 11.99555 | 41394 ft | 430 kts | 90° |
| 2026-05-01 13:54 | 49.94261 | 12.08678 | 41300 ft | 412 kts | 90° |
| 2026-05-01 13:54 | 49.94175 | 12.13094 | 40893 ft | 409 kts | 90° |
| 2026-05-01 13:54 | 49.94084 | 12.17529 | 40156 ft | 414 kts | 90° |
| 2026-05-01 13:55 | 49.93986 | 12.22013 | 39461 ft | 418 kts | 90° |
| 2026-05-01 13:55 | 49.93885 | 12.26529 | 38808 ft | 419 kts | 90° |
| 2026-05-01 13:55 | 49.93782 | 12.30985 | 38228 ft | 418 kts | 90° |
| 2026-05-01 13:55 | 49.93674 | 12.35491 | 37615 ft | 418 kts | 90° |
| 2026-05-01 13:56 | 49.93554 | 12.40004 | 36968 ft | 418 kts | 91° |
| 2026-05-01 13:56 | 49.93426 | 12.44503 | 36346 ft | 418 kts | 91° |
| 2026-05-01 13:56 | 49.93294 | 12.49005 | 35738 ft | 417 kts | 91° |
| 2026-05-01 13:56 | 49.93162 | 12.53498 | 35103 ft | 417 kts | 91° |
| 2026-05-01 13:57 | 49.93029 | 12.58024 | 34549 ft | 414 kts | 91° |
| 2026-05-01 13:57 | 49.92941 | 12.60986 | 34258 ft | 411 kts | 91° |
| 2026-05-01 13:57 | 49.92764 | 12.66846 | 33695 ft | 404 kts | 91° |
| 2026-05-01 13:57 | 49.92632 | 12.71185 | 33210 ft | 400 kts | 91° |
| 2026-05-01 13:58 | 49.92501 | 12.75426 | 32719 ft | 398 kts | 91° |
| 2026-05-01 13:58 | 49.92366 | 12.79759 | 32219 ft | 395 kts | 91° |
| 2026-05-01 13:58 | 49.92236 | 12.83941 | 31752 ft | 392 kts | 91° |
| 2026-05-01 13:58 | 49.92102 | 12.88141 | 31285 ft | 388 kts | 91° |
| 2026-05-01 13:59 | 49.91968 | 12.92316 | 30790 ft | 386 kts | 91° |
| 2026-05-01 13:59 | 49.91833 | 12.96473 | 30258 ft | 385 kts | 91° |
| 2026-05-01 13:59 | 49.91697 | 13.00604 | 29791 ft | 382 kts | 91° |
| 2026-05-01 13:59 | 49.91561 | 13.04708 | 29308 ft | 379 kts | 91° |
| 2026-05-01 14:00 | 49.91426 | 13.08771 | 28836 ft | 377 kts | 91° |
| 2026-05-01 14:00 | 49.91289 | 13.12821 | 28372 ft | 374 kts | 91° |
| 2026-05-01 14:00 | 49.91153 | 13.16837 | 27919 ft | 371 kts | 91° |
| 2026-05-01 14:00 | 49.91014 | 13.20824 | 27453 ft | 369 kts | 91° |
| 2026-05-01 14:01 | 49.90876 | 13.24776 | 27004 ft | 366 kts | 91° |
| 2026-05-01 14:01 | 49.90741 | 13.28693 | 26591 ft | 362 kts | 91° |
| 2026-05-01 14:01 | 49.90609 | 13.32579 | 26137 ft | 360 kts | 91° |
| 2026-05-01 14:01 | 49.90478 | 13.36439 | 25687 ft | 357 kts | 91° |
| 2026-05-01 14:02 | 49.90345 | 13.40271 | 25244 ft | 355 kts | 91° |
| 2026-05-01 14:02 | 49.90211 | 13.44086 | 24803 ft | 353 kts | 90° |
| 2026-05-01 14:02 | 49.90464 | 13.47826 | 24344 ft | 347 kts | 72° |
| 2026-05-01 14:02 | 49.91467 | 13.51176 | 23940 ft | 342 kts | 55° |
| 2026-05-01 14:03 | 49.92867 | 13.54130 | 23514 ft | 339 kts | 52° |
| 2026-05-01 14:03 | 49.94324 | 13.57011 | 23073 ft | 338 kts | 51° |
| 2026-05-01 14:03 | 49.95775 | 13.59859 | 22633 ft | 336 kts | 51° |
| 2026-05-01 14:03 | 49.97215 | 13.62710 | 22188 ft | 334 kts | 52° |
| 2026-05-01 14:04 | 49.98637 | 13.65555 | 21765 ft | 332 kts | 52° |
| 2026-05-01 14:04 | 50.00047 | 13.68396 | 21329 ft | 331 kts | 52° |
| 2026-05-01 14:04 | 50.01442 | 13.71220 | 20903 ft | 329 kts | 52° |
| 2026-05-01 14:04 | 50.02361 | 13.73085 | 20623 ft | 328 kts | 52° |
| 2026-05-01 14:05 | 50.04207 | 13.76839 | 20056 ft | 325 kts | 52° |
| 2026-05-01 14:05 | 50.05579 | 13.79633 | 19626 ft | 324 kts | 52° |
| 2026-05-01 14:05 | 50.06935 | 13.82414 | 19198 ft | 323 kts | 54° |
| 2026-05-01 14:05 | 50.07919 | 13.85530 | 18772 ft | 322 kts | 73° |
| 2026-05-01 14:06 | 50.08379 | 13.88936 | 18367 ft | 320 kts | 78° |
| 2026-05-01 14:06 | 50.08754 | 13.92340 | 17948 ft | 319 kts | 79° |
| 2026-05-01 14:06 | 50.09116 | 13.95744 | 17528 ft | 317 kts | 79° |
| 2026-05-01 14:06 | 50.09477 | 13.99120 | 17113 ft | 316 kts | 79° |
| 2026-05-01 14:07 | 50.09843 | 14.02484 | 16698 ft | 314 kts | 79° |
| 2026-05-01 14:07 | 50.10213 | 14.05836 | 16281 ft | 313 kts | 79° |
| 2026-05-01 14:07 | 50.10584 | 14.09170 | 15868 ft | 312 kts | 79° |
| 2026-05-01 14:08 | 50.11323 | 14.15801 | 15032 ft | 310 kts | 79° |
| 2026-05-01 14:08 | 50.11686 | 14.19056 | 14634 ft | 309 kts | 79° |
| 2026-05-01 14:08 | 50.12056 | 14.22386 | 14215 ft | 308 kts | 79° |
| 2026-05-01 14:08 | 50.12416 | 14.25619 | 13805 ft | 307 kts | 79° |
| 2026-05-01 14:09 | 50.12779 | 14.28887 | 13393 ft | 305 kts | 79° |
| 2026-05-01 14:09 | 50.13139 | 14.32145 | 12980 ft | 304 kts | 79° |
| 2026-05-01 14:09 | 50.13496 | 14.35379 | 12573 ft | 303 kts | 79° |
| 2026-05-01 14:09 | 50.13599 | 14.38652 | 12135 ft | 305 kts | 98° |
| 2026-05-01 14:10 | 50.12891 | 14.41756 | 11742 ft | 307 kts | 118° |
| 2026-05-01 14:10 | 50.11652 | 14.44465 | 11334 ft | 307 kts | 125° |
| 2026-05-01 14:10 | 50.10336 | 14.47103 | 10739 ft | 312 kts | 126° |
| 2026-05-01 14:10 | 50.08995 | 14.49802 | 10235 ft | 314 kts | 126° |
| 2026-05-01 14:11 | 50.07687 | 14.52458 | 10039 ft | 305 kts | 126° |
| 2026-05-01 14:11 | 50.05202 | 14.57540 | 9917 ft | 282 kts | 126° |
| 2026-05-01 14:11 | 50.04033 | 14.59937 | 9803 ft | 275 kts | 125° |
| 2026-05-01 14:12 | 50.02883 | 14.62293 | 9541 ft | 274 kts | 126° |
| 2026-05-01 14:12 | 50.01732 | 14.64648 | 9251 ft | 274 kts | 126° |
| 2026-05-01 14:12 | 50.00579 | 14.67003 | 8980 ft | 273 kts | 126° |
| 2026-05-01 14:12 | 49.99430 | 14.69349 | 8706 ft | 273 kts | 126° |
| 2026-05-01 14:13 | 49.98281 | 14.71694 | 8449 ft | 271 kts | 126° |
| 2026-05-01 14:13 | 49.97503 | 14.73209 | 8292 ft | 271 kts | 132° |
| 2026-05-01 14:13 | 49.95297 | 14.74973 | 7939 ft | 274 kts | 173° |
| 2026-05-01 14:13 | 49.93428 | 14.74620 | 7727 ft | 273 kts | 201° |
| 2026-05-01 14:14 | 49.91956 | 14.73315 | 7623 ft | 267 kts | 217° |
| 2026-05-01 14:14 | 49.91400 | 14.72574 | 7592 ft | 264 kts | 227° |
| 2026-05-01 14:14 | 49.90547 | 14.70236 | 7530 ft | 254 kts | 256° |
| 2026-05-01 14:14 | 49.90482 | 14.67575 | 7486 ft | 244 kts | 281° |
| 2026-05-01 14:15 | 49.91034 | 14.65145 | 7347 ft | 237 kts | 302° |
| 2026-05-01 14:15 | 49.92030 | 14.63144 | 7090 ft | 230 kts | 312° |
| 2026-05-01 14:15 | 49.93065 | 14.61287 | 6777 ft | 225 kts | 310° |
| 2026-05-01 14:15 | 49.94027 | 14.59413 | 6450 ft | 220 kts | 308° |
| 2026-05-01 14:16 | 49.94945 | 14.57537 | 6127 ft | 217 kts | 307° |
| 2026-05-01 14:16 | 49.95839 | 14.55677 | 5772 ft | 213 kts | 307° |
| 2026-05-01 14:16 | 49.96729 | 14.53819 | 5267 ft | 214 kts | 307° |
| 2026-05-01 14:16 | 49.97585 | 14.52030 | 4947 ft | 199 kts | 307° |
| 2026-05-01 14:17 | 49.98382 | 14.50368 | 4682 ft | 185 kts | 307° |
| 2026-05-01 14:17 | 49.99132 | 14.48805 | 4450 ft | 177 kts | 307° |
| 2026-05-01 14:17 | 49.99865 | 14.47273 | 4227 ft | 178 kts | 307° |
| 2026-05-01 14:17 | 50.00365 | 14.46228 | 4069 ft | 178 kts | 307° |
| 2026-05-01 14:18 | 50.01108 | 14.44684 | 3831 ft | 178 kts | 307° |
| 2026-05-01 14:18 | 50.01844 | 14.43149 | 3597 ft | 176 kts | 307° |
| 2026-05-01 14:18 | 50.02578 | 14.41621 | 3369 ft | 176 kts | 307° |
| 2026-05-01 14:18 | 50.03300 | 14.40117 | 3131 ft | 175 kts | 307° |
| 2026-05-01 14:19 | 50.04029 | 14.38600 | 2895 ft | 174 kts | 307° |
| 2026-05-01 14:19 | 50.04737 | 14.37129 | 2668 ft | 161 kts | 307° |
| 2026-05-01 14:19 | 50.05376 | 14.35797 | 2458 ft | 151 kts | 308° |
| 2026-05-01 14:19 | 50.05978 | 14.34544 | 2277 ft | 140 kts | 307° |
| 2026-05-01 14:20 | 50.06549 | 14.33356 | 2104 ft | 136 kts | 307° |
| 2026-05-01 14:20 | 50.07657 | 14.31060 | 1751 ft | 133 kts | 307° |
| 2026-05-01 14:20 | 50.08220 | 14.29894 | 1571 ft | 135 kts | 306° |
| 2026-05-01 14:21 | 50.08765 | 14.28746 | 1385 ft | 129 kts | 307° |
| 2026-05-01 14:21 | 50.09296 | 14.27648 | 1223 ft | 122 kts | 308° |
| 2026-05-01 14:21 | 50.09762 | 14.26688 | 1205 ft | 97 kts | 307° |
| 2026-05-01 14:22 | 50.10278 | 14.25700 | 1184 ft | 25 kts | 333° |
| 2026-05-01 14:22 | 50.10403 | 14.25658 | 1182 ft | 16 kts | 359° |
| 2026-05-01 14:22 | 50.10512 | 14.25700 | 1174 ft | 18 kts | 26° |
| 2026-05-01 14:22 | 50.10627 | 14.25815 | 1172 ft | 21 kts | 35° |
| 2026-05-01 14:23 | 50.10748 | 14.25944 | 1169 ft | 20 kts | 34° |
| 2026-05-01 14:23 | 50.10805 | 14.26005 | 1172 ft | 7 kts | 34° |
| 2026-05-01 14:23 | 50.10837 | 14.26033 | 1178 ft | 3 kts | 5° |
| 2026-05-01 14:23 | 50.10858 | 14.26004 | 1168 ft | 6 kts | 308° |
| 2026-05-01 14:24 | 50.10878 | 14.25959 | 1169 ft | 3 kts | 304° |
| 2026-05-01 14:24 | 50.10882 | 14.25950 | 1168 ft | 0 kts | 304° |